createdAt,value
2022-08-28T00:02:04.647Z,18.02
2022-08-28T00:04:32.152Z,18.06
2022-08-28T00:06:59.732Z,18.14
2022-08-28T00:09:27.190Z,18.12
2022-08-28T00:11:55.331Z,18.19
2022-08-28T00:14:24.425Z,18.20
2022-08-28T00:16:52.567Z,18.09
2022-08-28T00:19:20.616Z,18.07
2022-08-28T00:21:48.208Z,18.05
2022-08-28T00:24:15.719Z,18.04
2022-08-28T00:27:02.217Z,17.99
2022-08-28T00:29:30.649Z,18.04
2022-08-28T00:31:58.480Z,17.93
2022-08-28T00:34:33.483Z,17.97
2022-08-28T00:37:01.916Z,17.98
2022-08-28T00:39:29.366Z,18.04
2022-08-28T00:41:58.006Z,18.01
2022-08-28T00:44:28.414Z,18.05
2022-08-28T00:46:58.010Z,18.03
2022-08-28T00:49:32.955Z,18.10
2022-08-28T00:52:16.259Z,17.98
2022-08-28T00:54:58.899Z,17.93
2022-08-28T00:57:37.946Z,18.09
2022-08-28T01:00:16.756Z,18.07
2022-08-28T01:02:44.357Z,17.94
2022-08-28T01:05:13.869Z,17.79
2022-08-28T01:07:42.241Z,17.78
2022-08-28T01:10:14.483Z,17.73
2022-08-28T01:12:42.776Z,17.70
2022-08-28T01:15:14.077Z,17.84
2022-08-28T01:17:46.759Z,17.95
2022-08-28T01:20:18.366Z,17.92
2022-08-28T01:22:59.459Z,17.92
2022-08-28T01:25:30.937Z,17.73
2022-08-28T01:27:58.798Z,17.90
2022-08-28T01:30:26.718Z,18.02
2022-08-28T01:32:56.129Z,18.17
2022-08-28T01:35:32.022Z,18.27
2022-08-28T01:38:00.300Z,18.24
2022-08-28T01:40:36.757Z,18.30
2022-08-28T01:43:19.515Z,18.39
2022-08-28T01:45:53.193Z,18.34
2022-08-28T01:48:23.307Z,18.40
2022-08-28T01:50:51.050Z,18.43
2022-08-28T01:53:24.870Z,18.55
2022-08-28T01:55:54.993Z,18.63
2022-08-28T01:58:23.512Z,18.70
2022-08-28T02:00:53.931Z,18.72
2022-08-28T02:03:23.867Z,18.84
2022-08-28T02:05:52.504Z,18.94
2022-08-28T02:08:20.864Z,19.02
2022-08-28T02:10:49.448Z,19.11
2022-08-28T02:13:17.111Z,19.19
2022-08-28T02:15:46.174Z,19.21
2022-08-28T02:18:14.751Z,19.43
2022-08-28T02:20:43.216Z,19.53
2022-08-28T02:23:11.260Z,19.65
2022-08-28T02:25:39.704Z,19.79
2022-08-28T02:28:07.383Z,20.00
2022-08-28T02:30:36.010Z,20.41
2022-08-28T02:33:04.247Z,20.83
2022-08-28T02:35:32.026Z,21.29
2022-08-28T02:38:00.463Z,21.77
2022-08-28T02:40:28.450Z,22.20
2022-08-28T02:42:56.046Z,22.65
2022-08-28T02:45:23.611Z,23.11
2022-08-28T02:47:53.415Z,23.59
2022-08-28T02:50:22.125Z,24.14
2022-08-28T02:52:49.679Z,24.61
2022-08-28T02:55:19.169Z,25.05
2022-08-28T02:57:48.764Z,25.47
2022-08-28T03:00:21.568Z,25.87
2022-08-28T03:02:50.348Z,26.31
2022-08-28T03:05:21.323Z,26.69
2022-08-28T03:07:50.666Z,27.09
2022-08-28T03:10:18.604Z,27.34
2022-08-28T03:12:46.449Z,27.63
2022-08-28T03:15:14.402Z,27.86
2022-08-28T03:17:41.989Z,28.05
2022-08-28T03:20:10.892Z,28.33
2022-08-28T03:22:57.353Z,28.65
2022-08-28T03:25:25.918Z,28.93
2022-08-28T03:27:53.944Z,29.23
2022-08-28T03:30:22.274Z,29.64
2022-08-28T03:32:50.187Z,30.05
2022-08-28T03:35:17.803Z,30.35
2022-08-28T03:37:45.190Z,30.79
2022-08-28T03:40:14.046Z,31.15
2022-08-28T03:42:41.531Z,31.53
2022-08-28T03:45:11.068Z,31.86
2022-08-28T03:47:40.670Z,32.28
2022-08-28T03:50:11.733Z,32.70
2022-08-28T03:52:41.422Z,33.04
2022-08-28T03:55:11.033Z,33.47
2022-08-28T03:57:39.420Z,33.79
2022-08-28T04:00:10.374Z,34.07
2022-08-28T04:02:42.411Z,34.38
2022-08-28T04:05:11.345Z,34.75
2022-08-28T04:07:40.391Z,35.10
2022-08-28T04:10:08.531Z,35.32
2022-08-28T04:12:37.217Z,35.62
2022-08-28T04:15:06.998Z,35.87
2022-08-28T04:17:35.334Z,36.20
2022-08-28T04:20:02.968Z,36.45
2022-08-28T04:22:30.928Z,36.59
2022-08-28T04:24:58.416Z,36.88
2022-08-28T04:27:25.796Z,37.14
2022-08-28T04:29:53.360Z,37.36
2022-08-28T04:32:22.163Z,37.58
2022-08-28T04:34:50.369Z,37.90
2022-08-28T04:37:18.710Z,38.08
2022-08-28T04:39:46.379Z,38.36
2022-08-28T04:42:14.720Z,38.52
2022-08-28T04:44:42.599Z,38.70
2022-08-28T04:47:10.463Z,38.89
2022-08-28T04:49:38.026Z,38.97
2022-08-28T04:52:05.668Z,39.18
2022-08-28T04:54:34.809Z,39.39
2022-08-28T04:57:03.129Z,39.60
2022-08-28T04:59:34.603Z,39.79
2022-08-28T05:02:02.658Z,40.02
2022-08-28T05:04:30.219Z,40.22
2022-08-28T05:06:57.727Z,40.37
2022-08-28T05:09:25.364Z,40.58
2022-08-28T05:11:53.693Z,40.75
2022-08-28T05:14:22.092Z,40.89
2022-08-28T05:16:53.260Z,40.82
2022-08-28T05:19:21.603Z,40.50
2022-08-28T05:21:49.289Z,40.17
2022-08-28T05:24:17.115Z,39.81
2022-08-28T05:26:48.172Z,39.67
2022-08-28T05:29:17.085Z,39.73
2022-08-28T05:31:44.648Z,39.88
2022-08-28T05:34:14.288Z,40.19
2022-08-28T05:36:42.357Z,40.44
2022-08-28T05:39:11.953Z,40.53
2022-08-28T05:41:42.546Z,40.75
2022-08-28T05:44:13.897Z,40.89
2022-08-28T05:46:43.952Z,41.20
2022-08-28T05:49:12.658Z,41.52
2022-08-28T05:51:42.239Z,41.77
2022-08-28T05:54:10.686Z,41.98
2022-08-28T05:56:40.731Z,42.28
2022-08-28T05:59:09.818Z,42.48
2022-08-28T06:01:41.705Z,42.60
2022-08-28T06:04:12.733Z,42.82
2022-08-28T06:06:41.594Z,43.22
2022-08-28T06:09:29.756Z,42.91
2022-08-28T06:12:01.908Z,43.50
2022-08-28T06:14:30.724Z,43.78
2022-08-28T06:16:59.204Z,43.99
2022-08-28T06:19:29.386Z,44.11
2022-08-28T06:21:59.984Z,44.21
2022-08-28T06:24:29.196Z,44.38
2022-08-28T06:26:58.185Z,44.57
2022-08-28T06:29:28.060Z,44.67
2022-08-28T06:31:58.589Z,44.80
2022-08-28T06:34:27.054Z,45.04
2022-08-28T06:36:54.903Z,45.08
2022-08-28T06:39:23.141Z,45.30
2022-08-28T06:41:50.891Z,45.43
2022-08-28T06:44:20.748Z,45.51
2022-08-28T06:46:51.122Z,45.56
2022-08-28T06:49:18.743Z,45.65
2022-08-28T06:51:46.470Z,45.74
2022-08-28T06:54:19.789Z,45.87
2022-08-28T06:56:50.792Z,45.91
2022-08-28T06:59:18.382Z,46.07
2022-08-28T07:01:46.000Z,46.19
2022-08-28T07:04:16.567Z,46.29
2022-08-28T07:06:54.814Z,46.29
2022-08-28T07:09:23.953Z,46.06
2022-08-28T07:11:51.641Z,46.09
2022-08-28T07:14:19.248Z,45.92
2022-08-28T07:16:46.796Z,45.92
2022-08-28T07:19:16.698Z,45.89
2022-08-28T07:21:45.750Z,45.71
2022-08-28T07:24:14.980Z,45.39
2022-08-28T07:26:43.959Z,45.20
2022-08-28T07:29:12.631Z,44.97
2022-08-28T07:31:44.232Z,44.64
2022-08-28T07:34:13.896Z,44.11
2022-08-28T07:36:42.471Z,43.71
2022-08-28T07:39:12.425Z,43.26
2022-08-28T07:41:43.005Z,42.80
2022-08-28T07:44:31.540Z,42.42
2022-08-28T07:47:04.486Z,42.08
2022-08-28T07:49:34.510Z,41.52
2022-08-28T07:52:02.729Z,41.26
2022-08-28T07:54:30.247Z,40.90
2022-08-28T07:56:57.779Z,40.73
2022-08-28T07:59:25.298Z,40.45
2022-08-28T08:01:53.856Z,40.27
2022-08-28T08:04:23.715Z,40.08
2022-08-28T08:06:57.543Z,39.83
2022-08-28T08:09:26.338Z,39.55
2022-08-28T08:11:55.276Z,39.20
2022-08-28T08:14:23.284Z,38.82
2022-08-28T08:16:51.951Z,38.68
2022-08-28T08:19:20.590Z,38.55
2022-08-28T08:21:53.085Z,38.50
2022-08-28T08:24:26.703Z,38.37
2022-08-28T08:26:59.835Z,38.37
2022-08-28T08:29:31.900Z,38.12
2022-08-28T08:32:06.104Z,37.98
2022-08-28T08:34:37.598Z,37.69
2022-08-28T08:37:06.022Z,37.52
2022-08-28T08:39:35.259Z,37.27
2022-08-28T08:42:07.285Z,37.16
2022-08-28T08:44:39.307Z,36.98
2022-08-28T08:47:17.170Z,36.77
2022-08-28T08:49:57.480Z,36.86
2022-08-28T08:52:49.241Z,36.61
2022-08-28T08:55:24.704Z,36.26
2022-08-28T08:58:17.783Z,35.84
2022-08-28T09:00:58.734Z,35.84
2022-08-28T09:03:48.266Z,35.41
2022-08-28T09:06:43.998Z,35.53
2022-08-28T09:09:32.597Z,35.34
2022-08-28T09:12:04.098Z,34.69
2022-08-28T09:14:53.134Z,34.56
2022-08-28T09:17:24.587Z,34.32
2022-08-28T09:19:52.046Z,33.92
2022-08-28T09:22:19.590Z,33.78
2022-08-28T09:24:47.872Z,33.53
2022-08-28T09:27:28.626Z,33.49
2022-08-28T09:30:07.472Z,33.33
2022-08-28T09:32:44.890Z,33.04
2022-08-28T09:35:25.806Z,33.24
2022-08-28T09:37:53.410Z,32.78
2022-08-28T09:40:23.732Z,32.57
2022-08-28T09:43:28.616Z,32.85
2022-08-28T09:46:22.484Z,32.49
2022-08-28T09:48:53.955Z,31.74
2022-08-28T09:51:21.413Z,31.61
2022-08-28T09:53:52.071Z,31.61
2022-08-28T09:56:32.679Z,31.51
2022-08-28T09:59:02.963Z,31.22
2022-08-28T10:01:51.636Z,31.57
2022-08-28T10:04:24.925Z,31.35
2022-08-28T10:07:13.381Z,31.19
2022-08-28T10:09:52.702Z,30.98
2022-08-28T10:12:50.620Z,30.93
2022-08-28T10:15:26.595Z,30.57
2022-08-28T10:18:31.782Z,30.95
2022-08-28T10:21:14.447Z,30.38
2022-08-28T10:24:07.615Z,30.48
2022-08-28T10:26:43.133Z,30.13
2022-08-28T10:29:27.558Z,30.16
2022-08-28T10:32:14.700Z,30.23
2022-08-28T10:35:03.599Z,29.92
2022-08-28T10:37:52.983Z,29.94
2022-08-28T10:40:35.391Z,30.05
2022-08-28T10:43:11.435Z,30.38
2022-08-28T10:45:40.010Z,29.70
2022-08-28T10:48:24.405Z,29.90
2022-08-28T10:50:57.234Z,29.58
2022-08-28T10:53:52.621Z,29.79
2022-08-28T10:56:30.901Z,29.51
2022-08-28T10:58:59.816Z,29.29
2022-08-28T11:01:38.812Z,29.43
2022-08-28T11:04:14.689Z,29.26
2022-08-28T11:06:50.717Z,29.28
2022-08-28T11:09:31.482Z,29.19
2022-08-28T11:12:09.932Z,29.01
2022-08-28T11:14:48.024Z,29.01
2022-08-28T11:17:22.369Z,29.04
2022-08-28T11:19:57.177Z,28.97
2022-08-28T11:22:30.124Z,28.84
2022-08-28T11:25:13.342Z,28.82
2022-08-28T11:28:01.637Z,28.73
2022-08-28T11:30:33.794Z,28.84
2022-08-28T11:33:04.735Z,28.74
2022-08-28T11:35:46.566Z,28.81
2022-08-28T11:38:42.616Z,28.91
2022-08-28T11:41:15.042Z,28.67
2022-08-28T11:43:51.731Z,28.68
2022-08-28T11:46:31.865Z,28.68
2022-08-28T11:49:01.790Z,28.39
2022-08-28T11:52:07.749Z,28.73
2022-08-28T11:55:22.641Z,28.67
2022-08-28T12:01:01.807Z,28.61
2022-08-28T12:03:38.119Z,28.44
2022-08-28T12:06:07.211Z,28.17
2022-08-28T12:08:51.653Z,28.44
2022-08-28T12:11:40.849Z,28.48
2022-08-28T12:14:09.402Z,28.13
2022-08-28T12:17:01.479Z,28.42
2022-08-28T12:19:36.874Z,28.68
2022-08-28T12:22:13.721Z,28.23
2022-08-28T12:24:50.814Z,28.28
2022-08-28T12:27:18.945Z,28.02
2022-08-28T12:29:50.921Z,28.08
2022-08-28T12:32:21.372Z,27.94
2022-08-28T12:34:58.003Z,28.13
2022-08-28T12:37:52.551Z,28.15
2022-08-28T12:40:53.691Z,28.37
2022-08-28T12:43:46.788Z,28.38
2022-08-28T12:46:38.507Z,28.28
2022-08-28T12:49:27.603Z,28.30
2022-08-28T12:52:18.255Z,28.22
2022-08-28T12:54:47.051Z,27.85
2022-08-28T12:57:18.111Z,27.86
2022-08-28T12:59:51.294Z,27.88
2022-08-28T13:02:18.653Z,28.30
2022-08-28T13:05:20.555Z,27.93
2022-08-28T13:07:51.675Z,27.80
2022-08-28T13:10:30.086Z,27.86
2022-08-28T13:13:05.470Z,27.64
2022-08-28T13:16:01.727Z,27.85
2022-08-28T13:18:51.684Z,27.84
2022-08-28T13:21:34.060Z,27.51
2022-08-28T13:24:22.345Z,27.81
2022-08-28T13:27:00.980Z,27.52
2022-08-28T13:29:28.870Z,27.38
2022-08-28T13:32:05.522Z,27.48
2022-08-28T13:34:36.292Z,27.38
2022-08-28T13:37:14.645Z,27.32
2022-08-28T13:39:47.971Z,27.23
2022-08-28T13:42:18.182Z,27.25
2022-08-28T13:44:53.478Z,27.29
2022-08-28T13:47:21.057Z,27.12
2022-08-28T13:49:48.642Z,27.07
2022-08-28T13:52:16.385Z,26.99
2022-08-28T13:54:45.514Z,26.99
2022-08-28T13:57:14.104Z,26.96
2022-08-28T13:59:42.176Z,26.90
2022-08-28T14:02:32.738Z,26.96
2022-08-28T14:05:01.142Z,26.85
2022-08-28T14:07:30.674Z,26.77
2022-08-28T14:09:58.686Z,26.72
2022-08-28T14:12:31.427Z,26.64
2022-08-28T14:15:01.962Z,26.63
2022-08-28T14:17:31.977Z,26.62
2022-08-28T14:20:00.584Z,26.59
2022-08-28T14:22:28.801Z,26.54
2022-08-28T14:24:56.271Z,26.53
2022-08-28T14:27:23.758Z,26.49
2022-08-28T14:29:51.289Z,26.43
2022-08-28T14:32:18.947Z,26.38
2022-08-28T14:34:47.886Z,26.31
2022-08-28T14:37:15.895Z,26.30
2022-08-28T14:39:43.809Z,26.25
2022-08-28T14:42:13.023Z,26.20
2022-08-28T14:44:40.966Z,26.14
2022-08-28T14:47:09.001Z,26.06
2022-08-28T14:49:36.596Z,26.00
2022-08-28T14:52:04.883Z,25.95
2022-08-28T14:54:32.441Z,25.91
2022-08-28T14:57:00.024Z,25.86
2022-08-28T14:59:29.492Z,25.83
2022-08-28T15:02:00.337Z,25.80
2022-08-28T15:04:34.841Z,25.76
2022-08-28T15:07:06.848Z,25.77
2022-08-28T15:09:39.957Z,25.77
2022-08-28T15:12:07.654Z,26.23
2022-08-28T15:14:36.299Z,25.62
2022-08-28T15:17:04.352Z,25.48
2022-08-28T15:19:31.981Z,25.36
2022-08-28T15:22:00.092Z,25.29
2022-08-28T15:24:31.766Z,25.26
2022-08-28T15:26:59.966Z,25.20
2022-08-28T15:29:30.147Z,25.14
2022-08-28T15:31:58.698Z,25.10
2022-08-28T15:34:28.700Z,25.10
2022-08-28T15:36:57.817Z,25.02
2022-08-28T15:39:46.368Z,25.00
2022-08-28T15:42:14.612Z,24.93
2022-08-28T15:44:42.616Z,24.88
2022-08-28T15:47:10.654Z,24.80
2022-08-28T15:49:48.616Z,24.77
2022-08-28T15:52:19.023Z,24.74
2022-08-28T15:54:47.430Z,24.72
2022-08-28T15:57:17.022Z,24.72
2022-08-28T15:59:49.532Z,24.67
2022-08-28T16:02:24.558Z,24.80
2022-08-28T16:04:53.647Z,24.63
2022-08-28T16:07:22.776Z,24.59
2022-08-28T16:09:50.926Z,24.53
2022-08-28T16:12:18.666Z,24.48
2022-08-28T16:14:46.262Z,24.37
2022-08-28T16:17:13.923Z,24.37
2022-08-28T16:19:42.462Z,24.33
2022-08-28T16:22:12.758Z,24.29
2022-08-28T16:24:40.389Z,24.27
2022-08-28T16:27:13.124Z,24.23
2022-08-28T16:29:43.475Z,24.23
2022-08-28T16:32:11.704Z,24.20
2022-08-28T16:34:40.238Z,24.13
2022-08-28T16:37:08.224Z,24.17
2022-08-28T16:39:37.060Z,24.17
2022-08-28T16:42:04.907Z,24.08
2022-08-28T16:44:32.462Z,24.05
2022-08-28T16:47:00.695Z,24.02
2022-08-28T16:49:28.311Z,24.01
2022-08-28T16:51:55.860Z,23.95
2022-08-28T16:54:23.910Z,23.90
2022-08-28T16:56:51.548Z,23.83
2022-08-28T16:59:23.260Z,23.84
2022-08-28T17:01:53.074Z,23.84
2022-08-28T17:04:22.390Z,23.82
2022-08-28T17:06:50.378Z,23.77
2022-08-28T17:09:21.150Z,23.74
2022-08-28T17:11:52.059Z,23.75
2022-08-28T17:14:21.379Z,23.70
2022-08-28T17:16:49.124Z,23.68
2022-08-28T17:19:16.705Z,23.63
2022-08-28T17:22:02.541Z,23.58
2022-08-28T17:24:31.356Z,23.61
2022-08-28T17:27:03.249Z,23.53
2022-08-28T17:29:36.630Z,23.49
2022-08-28T17:32:05.544Z,23.43
2022-08-28T17:34:33.023Z,23.38
2022-08-28T17:37:00.610Z,23.36
2022-08-28T17:39:28.371Z,23.35
2022-08-28T17:41:55.969Z,23.31
2022-08-28T17:44:23.834Z,23.27
2022-08-28T17:46:53.966Z,23.27
2022-08-28T17:49:22.729Z,23.27
2022-08-28T17:51:51.384Z,23.24
2022-08-28T17:54:21.979Z,23.25
2022-08-28T17:56:52.421Z,23.25
2022-08-28T17:59:20.744Z,23.17
2022-08-28T18:01:48.742Z,23.16
2022-08-28T18:04:23.277Z,23.18
2022-08-28T18:06:54.843Z,23.14
2022-08-28T18:09:23.806Z,23.14
2022-08-28T18:11:52.585Z,23.12
2022-08-28T18:14:20.345Z,23.05
2022-08-28T18:16:47.937Z,23.06
2022-08-28T18:19:16.613Z,23.09
2022-08-28T18:21:44.345Z,22.97
2022-08-28T18:24:13.282Z,23.04
2022-08-28T18:26:42.056Z,23.03
2022-08-28T18:29:09.621Z,23.01
2022-08-28T18:31:37.313Z,23.00
2022-08-28T18:34:05.611Z,22.98
2022-08-28T18:36:33.183Z,22.98
2022-08-28T18:39:00.749Z,22.97
2022-08-28T18:41:35.736Z,22.96
2022-08-28T18:44:13.717Z,23.01
2022-08-28T18:46:41.818Z,22.94
2022-08-28T18:49:09.699Z,22.96
2022-08-28T18:51:37.419Z,22.94
2022-08-28T18:54:04.988Z,22.92
2022-08-28T18:56:34.138Z,22.91
2022-08-28T18:59:04.459Z,22.92
2022-08-28T19:01:32.066Z,22.83
2022-08-28T19:03:59.755Z,22.80
2022-08-28T19:06:27.381Z,22.79
2022-08-28T19:08:54.842Z,22.72
2022-08-28T19:11:22.282Z,22.69
2022-08-28T19:13:49.798Z,22.69
2022-08-28T19:16:20.823Z,22.74
2022-08-28T19:18:48.886Z,22.68
2022-08-28T19:21:20.670Z,22.66
2022-08-28T19:23:55.357Z,22.62
2022-08-28T19:26:27.499Z,22.65
2022-08-28T19:28:55.453Z,22.61
2022-08-28T19:31:23.752Z,22.57
2022-08-28T19:33:51.689Z,22.50
2022-08-28T19:36:19.806Z,22.52
2022-08-28T19:38:47.867Z,22.49
2022-08-28T19:41:15.472Z,22.44
2022-08-28T19:43:44.693Z,22.44
2022-08-28T19:46:19.377Z,22.53
2022-08-28T19:48:53.016Z,22.55
2022-08-28T19:51:24.041Z,22.45
2022-08-28T19:53:57.821Z,22.44
2022-08-28T19:56:31.750Z,22.46
2022-08-28T19:59:01.789Z,22.36
2022-08-28T20:01:33.067Z,22.37
2022-08-28T20:04:00.769Z,22.30
2022-08-28T20:06:31.797Z,22.36
2022-08-28T20:09:00.577Z,22.21
2022-08-28T20:11:30.054Z,22.14
2022-08-28T20:14:04.564Z,22.19
2022-08-28T20:16:36.028Z,22.22
2022-08-28T20:19:04.755Z,22.14
2022-08-28T20:21:37.646Z,22.06
2022-08-28T20:24:09.420Z,22.65
2022-08-28T20:26:37.342Z,22.12
2022-08-28T20:29:07.944Z,22.12
2022-08-28T20:31:37.403Z,22.02
2022-08-28T20:34:05.205Z,21.99
2022-08-28T20:36:32.839Z,21.97
2022-08-28T20:39:01.023Z,21.88
2022-08-28T20:41:28.752Z,21.88
2022-08-28T20:43:56.212Z,21.82
2022-08-28T20:46:24.677Z,21.87
2022-08-28T20:48:52.267Z,21.77
2022-08-28T20:51:42.543Z,21.79
2022-08-28T20:54:10.777Z,21.79
2022-08-28T20:56:38.443Z,21.75
2022-08-28T20:59:06.399Z,21.69
2022-08-28T21:01:34.187Z,21.69
2022-08-28T21:04:02.307Z,21.69
2022-08-28T21:06:30.568Z,21.65
2022-08-28T21:08:58.587Z,21.66
2022-08-28T21:11:27.409Z,21.69
2022-08-28T21:13:55.652Z,21.62
2022-08-28T21:16:23.406Z,21.62
2022-08-28T21:19:14.684Z,21.57
2022-08-28T21:21:38.946Z,21.53
2022-08-28T21:24:09.496Z,21.61
2022-08-28T21:26:37.906Z,21.54
2022-08-28T21:29:07.014Z,21.56
2022-08-28T21:31:35.014Z,21.54
2022-08-28T21:34:02.616Z,21.52
2022-08-28T21:36:30.198Z,21.49
2022-08-28T21:38:58.634Z,21.49
2022-08-28T21:41:26.109Z,21.43
2022-08-28T21:43:53.770Z,21.44
2022-08-28T21:46:21.348Z,21.43
2022-08-28T21:48:50.607Z,21.44
2022-08-28T21:51:19.653Z,21.44
2022-08-28T21:53:47.647Z,21.41
2022-08-28T21:56:20.609Z,21.51
2022-08-28T21:58:48.199Z,21.38
2022-08-28T22:01:17.097Z,21.38
2022-08-28T22:03:45.521Z,21.38
2022-08-28T22:06:15.870Z,21.38
2022-08-28T22:08:43.851Z,21.37
2022-08-28T22:11:12.158Z,21.33
2022-08-28T22:13:39.883Z,21.30
2022-08-28T22:16:08.323Z,21.27
2022-08-28T22:18:36.071Z,21.27
2022-08-28T22:21:22.964Z,21.29
2022-08-28T22:23:51.702Z,21.28
2022-08-28T22:26:22.538Z,21.29
2022-08-28T22:28:50.115Z,21.22
2022-08-28T22:31:17.661Z,21.17
2022-08-28T22:33:45.769Z,21.20
2022-08-28T22:36:13.754Z,21.17
2022-08-28T22:38:41.826Z,21.17
2022-08-28T22:41:17.665Z,21.17
2022-08-28T22:43:48.304Z,21.20
2022-08-28T22:46:19.065Z,21.13
2022-08-28T22:48:46.671Z,21.09
2022-08-28T22:51:17.168Z,21.16
2022-08-28T22:53:45.512Z,21.10
2022-08-28T22:56:14.176Z,21.12
2022-08-28T22:58:41.975Z,21.08
2022-08-28T23:01:13.828Z,21.18
2022-08-28T23:03:42.399Z,21.07
2022-08-28T23:06:10.185Z,21.11
2022-08-28T23:08:37.697Z,21.12
2022-08-28T23:11:05.739Z,21.10
2022-08-28T23:13:33.604Z,21.10
2022-08-28T23:16:02.244Z,21.10
2022-08-28T23:18:41.496Z,21.13
2022-08-28T23:21:14.085Z,21.10
2022-08-28T23:23:42.752Z,21.07
2022-08-28T23:26:15.221Z,21.19
2022-08-28T23:28:44.490Z,21.12
2022-08-28T23:31:12.014Z,21.09
2022-08-28T23:33:39.532Z,21.04
2022-08-28T23:36:07.435Z,21.05
2022-08-28T23:38:43.036Z,21.16
2022-08-28T23:41:11.669Z,21.04
2022-08-28T23:43:41.142Z,21.02
2022-08-28T23:46:10.014Z,21.02
2022-08-28T23:48:41.357Z,21.00
2022-08-28T23:51:10.513Z,21.04
2022-08-28T23:53:39.797Z,21.01
2022-08-28T23:56:07.544Z,20.99
2022-08-28T23:58:35.623Z,20.98
